Aérodrome :







RETROUVEZ-NOUS SUR...

 
LOGIN :

S'inscrire | Disclaimer

   EN    FR    IT 

 









Légende :    VFR   VFR Marginal   IFR   IFR Intensif   IFR Très Intensif
Visi : 
Plafond : 
>= 8 km
>= 3000ft
5 à 8 km
1000 à 3000 ft
1500m à 5 km
500 à 1000 ft
800 à 1500m
200 à 500 ft
< 800m
< 200 ft
Symboles :   Orages  Brouillard  Fortes neiges  Fortes précipitations  Vent > 20 kt






- Altitude de l'aérodrome : 76 ft
- Code IATA : PWM


KPWM - Portland International Jetport

DERNIER METAR :
  • 100851Z AUTO 23007G17KT 10SM BKN019 OVC110 13/10 A2962 RMK AO2 SLP028 T01280100 53004

METARs EXPIRÉS :
  • 100805Z AUTO 21008G16KT 10SM SCT017 BKN021 13/10 A2960 RMK AO2 T01280100
  • 100751Z AUTO 21008KT 10SM BKN014 BKN023 13/10 A2960 RMK AO2 SLP024 T01280100
  • 100743Z AUTO 20009KT 10SM BKN015 BKN023 13/11 A2960 RMK AO2 T01280106
  • 100651Z AUTO 21006KT 10SM OVC010 12/11 A2960 RMK AO2 SLP024 T01220106

TAF KPWM
Valide du 10 à 09h jusqu'au 11 à 06h UTC


100903Z 1009/1106 21008G15KT 6SM BR VCSH SCT006 OVC020 WS020/23035KT
FM101600 23009KT P6SM -SHRA BKN025
FM102000 26011KT P6SM BKN035



MET'MAP, la Météo Aéronautique d'un coup d'oeil ! - Copyright ORBIFLY Décembre 2007 - Disclaimer

ORBIFLY MET'MAP TEAM :

Programmation & Développement : Alexandra Zaïnal
Sur une idée originale de : Baudouin d'Aumeries
Assistance à la programmation : Marc-Olivier Méhu
Soutien technique & logistique : Manuel Goepfert

Contact : metmap@orbifly.com




SOURCES & CREDITS :

   NOAA